sensor_id;sensor_type;location;lat;lon;timestamp;P1;durP1;ratioP1;P2;durP2;ratioP2
23517;SDS011;11935;50.878;4.392;2022-11-18T08:52:43;8.27;;;2.60;;
23517;SDS011;11935;50.878;4.392;2022-11-18T08:55:09;5.03;;;2.60;;
23517;SDS011;11935;50.878;4.392;2022-11-18T08:57:35;10.73;;;2.83;;
23517;SDS011;11935;50.878;4.392;2022-11-18T09:00:02;14.43;;;3.00;;
23517;SDS011;11935;50.878;4.392;2022-11-18T09:02:28;9.40;;;3.13;;
23517;SDS011;11935;50.878;4.392;2022-11-18T09:04:54;7.57;;;2.78;;
23517;SDS011;11935;50.878;4.392;2022-11-18T09:07:21;9.18;;;2.42;;
23517;SDS011;11935;50.878;4.392;2022-11-18T09:09:47;10.20;;;2.75;;
23517;SDS011;11935;50.878;4.392;2022-11-18T09:12:13;7.05;;;2.22;;
23517;SDS011;11935;50.878;4.392;2022-11-18T09:14:41;12.30;;;2.95;;
23517;SDS011;11935;50.878;4.392;2022-11-18T09:17:08;11.13;;;3.25;;
23517;SDS011;11935;50.878;4.392;2022-11-18T09:19:34;5.05;;;2.65;;
23517;SDS011;11935;50.878;4.392;2022-11-18T09:22:00;12.18;;;2.90;;
23517;SDS011;11935;50.878;4.392;2022-11-18T09:24:26;10.93;;;2.42;;
23517;SDS011;11935;50.878;4.392;2022-11-18T09:26:52;9.07;;;2.55;;
23517;SDS011;11935;50.878;4.392;2022-11-18T09:29:18;11.23;;;2.83;;
23517;SDS011;11935;50.878;4.392;2022-11-18T09:31:49;8.77;;;2.17;;
23517;SDS011;11935;50.878;4.392;2022-11-18T09:34:15;8.38;;;1.95;;
23517;SDS011;11935;50.878;4.392;2022-11-18T09:36:41;5.03;;;1.73;;
23517;SDS011;11935;50.878;4.392;2022-11-18T09:39:07;6.90;;;1.80;;
23517;SDS011;11935;50.878;4.392;2022-11-18T09:44:12;6.13;;;1.95;;
23517;SDS011;11935;50.878;4.392;2022-11-18T09:51:45;9.43;;;2.20;;
23517;SDS011;11935;50.878;4.392;2022-11-18T09:54:17;5.47;;;1.70;;
23517;SDS011;11935;50.878;4.392;2022-11-18T09:56:44;5.47;;;1.48;;
23517;SDS011;11935;50.878;4.392;2022-11-18T09:59:12;8.95;;;1.60;;
23517;SDS011;11935;50.878;4.392;2022-11-18T10:01:38;8.10;;;1.80;;
23517;SDS011;11935;50.878;4.392;2022-11-18T10:04:05;4.55;;;1.90;;
23517;SDS011;11935;50.878;4.392;2022-11-18T10:06:31;8.10;;;2.20;;
23517;SDS011;11935;50.878;4.392;2022-11-18T10:16:47;4.72;;;1.60;;
23517;SDS011;11935;50.878;4.392;2022-11-18T10:24:22;9.32;;;2.15;;
23517;SDS011;11935;50.878;4.392;2022-11-18T10:26:53;4.32;;;1.83;;
23517;SDS011;11935;50.878;4.392;2022-11-18T10:29:19;7.03;;;1.55;;
23517;SDS011;11935;50.878;4.392;2022-11-18T10:34:18;2.88;;;1.55;;
23517;SDS011;11935;50.878;4.392;2022-11-18T10:36:56;9.65;;;1.90;;
23517;SDS011;11935;50.878;4.392;2022-11-18T10:39:23;8.35;;;1.40;;
23517;SDS011;11935;50.878;4.392;2022-11-18T10:41:52;3.40;;;1.08;;
23517;SDS011;11935;50.878;4.392;2022-11-18T10:46:54;3.35;;;1.38;;
23517;SDS011;11935;50.878;4.392;2022-11-18T10:49:21;3.63;;;1.30;;
23517;SDS011;11935;50.878;4.392;2022-11-18T10:51:48;8.27;;;1.70;;
23517;SDS011;11935;50.878;4.392;2022-11-18T10:54:28;5.22;;;1.60;;
23517;SDS011;11935;50.878;4.392;2022-11-18T11:01:56;7.32;;;1.90;;
23517;SDS011;11935;50.878;4.392;2022-11-18T11:04:23;9.35;;;1.88;;
23517;SDS011;11935;50.878;4.392;2022-11-18T11:06:51;7.82;;;1.70;;
23517;SDS011;11935;50.878;4.392;2022-11-18T11:12:02;5.65;;;1.50;;
23517;SDS011;11935;50.878;4.392;2022-11-18T11:17:25;7.35;;;1.75;;
23517;SDS011;11935;50.878;4.392;2022-11-18T11:22:40;6.63;;;2.05;;
23517;SDS011;11935;50.878;4.392;2022-11-18T11:25:11;6.78;;;1.70;;
23517;SDS011;11935;50.878;4.392;2022-11-18T11:27:41;5.90;;;2.00;;
23517;SDS011;11935;50.878;4.392;2022-11-18T11:30:19;5.47;;;1.90;;
23517;SDS011;11935;50.878;4.392;2022-11-18T11:33:06;7.18;;;1.80;;
23517;SDS011;11935;50.878;4.392;2022-11-18T11:49:36;9.98;;;2.33;;
23517;SDS011;11935;50.878;4.392;2022-11-18T11:52:10;12.00;;;2.05;;
23517;SDS011;11935;50.878;4.392;2022-11-18T12:08:00;4.50;;;1.45;;
23517;SDS011;11935;50.878;4.392;2022-11-18T12:18:28;7.00;;;1.70;;
23517;SDS011;11935;50.878;4.392;2022-11-18T12:20:56;8.50;;;2.00;;
23517;SDS011;11935;50.878;4.392;2022-11-18T12:23:23;10.07;;;2.08;;
23517;SDS011;11935;50.878;4.392;2022-11-18T12:25:52;4.95;;;1.80;;
23517;SDS011;11935;50.878;4.392;2022-11-18T12:30:50;5.85;;;1.40;;
23517;SDS011;11935;50.878;4.392;2022-11-18T12:33:32;5.47;;;1.90;;
23517;SDS011;11935;50.878;4.392;2022-11-18T12:36:06;7.03;;;1.88;;
23517;SDS011;11935;50.878;4.392;2022-11-18T12:38:33;7.18;;;1.75;;
23517;SDS011;11935;50.878;4.392;2022-11-18T12:40:59;9.07;;;2.20;;
23517;SDS011;11935;50.878;4.392;2022-11-18T12:51:47;7.68;;;1.98;;
23517;SDS011;11935;50.878;4.392;2022-11-18T12:56:52;7.45;;;2.25;;
23517;SDS011;11935;50.878;4.392;2022-11-18T12:59:32;5.60;;;1.77;;
23517;SDS011;11935;50.878;4.392;2022-11-18T13:02:02;7.43;;;2.22;;
23517;SDS011;11935;50.878;4.392;2022-11-18T13:04:28;6.78;;;1.60;;
23517;SDS011;11935;50.878;4.392;2022-11-18T13:06:54;13.45;;;1.85;;
23517;SDS011;11935;50.878;4.392;2022-11-18T13:09:24;6.78;;;2.10;;
23517;SDS011;11935;50.878;4.392;2022-11-18T13:11:55;10.70;;;2.20;;
23517;SDS011;11935;50.878;4.392;2022-11-18T13:14:32;7.13;;;2.15;;
23517;SDS011;11935;50.878;4.392;2022-11-18T13:20:32;6.60;;;2.60;;
23517;SDS011;11935;50.878;4.392;2022-11-18T13:25:52;6.47;;;2.45;;
23517;SDS011;11935;50.878;4.392;2022-11-18T13:28:37;9.80;;;2.08;;
23517;SDS011;11935;50.878;4.392;2022-11-18T13:33:52;7.38;;;1.95;;
23517;SDS011;11935;50.878;4.392;2022-11-18T13:36:20;12.40;;;2.38;;
23517;SDS011;11935;50.878;4.392;2022-11-18T13:41:26;6.40;;;2.28;;
23517;SDS011;11935;50.878;4.392;2022-11-18T13:44:15;4.88;;;2.00;;
23517;SDS011;11935;50.878;4.392;2022-11-18T13:46:43;8.02;;;1.75;;
23517;SDS011;11935;50.878;4.392;2022-11-18T13:49:13;8.35;;;1.90;;
23517;SDS011;11935;50.878;4.392;2022-11-18T13:51:40;6.95;;;1.80;;
23517;SDS011;11935;50.878;4.392;2022-11-18T13:54:09;7.60;;;2.08;;
23517;SDS011;11935;50.878;4.392;2022-11-18T13:56:39;5.47;;;1.98;;
23517;SDS011;11935;50.878;4.392;2022-11-18T13:59:11;4.85;;;1.73;;
23517;SDS011;11935;50.878;4.392;2022-11-18T14:04:20;6.38;;;1.92;;
23517;SDS011;11935;50.878;4.392;2022-11-18T14:06:46;8.95;;;2.03;;
23517;SDS011;11935;50.878;4.392;2022-11-18T14:14:42;9.85;;;1.98;;
23517;SDS011;11935;50.878;4.392;2022-11-18T14:19:38;7.57;;;2.10;;
23517;SDS011;11935;50.878;4.392;2022-11-18T14:22:15;6.25;;;2.22;;
23517;SDS011;11935;50.878;4.392;2022-11-18T14:24:41;8.52;;;2.25;;
23517;SDS011;11935;50.878;4.392;2022-11-18T14:29:52;8.30;;;2.40;;
23517;SDS011;11935;50.878;4.392;2022-11-18T14:32:18;9.50;;;3.17;;
23517;SDS011;11935;50.878;4.392;2022-11-18T14:34:45;9.55;;;2.20;;
23517;SDS011;11935;50.878;4.392;2022-11-18T14:37:21;6.00;;;1.90;;
23517;SDS011;11935;50.878;4.392;2022-11-18T14:39:54;10.10;;;2.45;;
23517;SDS011;11935;50.878;4.392;2022-11-18T14:42:20;11.85;;;2.85;;
23517;SDS011;11935;50.878;4.392;2022-11-18T14:44:47;6.95;;;2.40;;
23517;SDS011;11935;50.878;4.392;2022-11-18T14:47:16;9.40;;;2.60;;
23517;SDS011;11935;50.878;4.392;2022-11-18T14:49:44;6.70;;;2.35;;
23517;SDS011;11935;50.878;4.392;2022-11-18T14:52:10;6.60;;;2.28;;
23517;SDS011;11935;50.878;4.392;2022-11-18T14:54:36;7.75;;;2.28;;
23517;SDS011;11935;50.878;4.392;2022-11-18T14:57:03;10.10;;;2.70;;
23517;SDS011;11935;50.878;4.392;2022-11-18T14:59:29;11.82;;;2.00;;
23517;SDS011;11935;50.878;4.392;2022-11-18T15:01:55;5.75;;;2.22;;
23517;SDS011;11935;50.878;4.392;2022-11-18T15:04:22;7.40;;;2.70;;
23517;SDS011;11935;50.878;4.392;2022-11-18T15:06:49;5.75;;;2.45;;
23517;SDS011;11935;50.878;4.392;2022-11-18T15:09:15;11.32;;;2.70;;
23517;SDS011;11935;50.878;4.392;2022-11-18T15:11:41;10.63;;;2.97;;
23517;SDS011;11935;50.878;4.392;2022-11-18T15:14:07;12.75;;;2.97;;
23517;SDS011;11935;50.878;4.392;2022-11-18T15:16:34;11.55;;;2.83;;
23517;SDS011;11935;50.878;4.392;2022-11-18T15:19:00;15.75;;;3.63;;
23517;SDS011;11935;50.878;4.392;2022-11-18T15:21:27;13.38;;;3.40;;
23517;SDS011;11935;50.878;4.392;2022-11-18T15:23:53;9.20;;;2.40;;
23517;SDS011;11935;50.878;4.392;2022-11-18T15:26:23;12.05;;;3.67;;
23517;SDS011;11935;50.878;4.392;2022-11-18T15:28:51;7.65;;;3.88;;
23517;SDS011;11935;50.878;4.392;2022-11-18T15:31:17;12.40;;;3.47;;
23517;SDS011;11935;50.878;4.392;2022-11-18T15:33:43;11.98;;;3.20;;
23517;SDS011;11935;50.878;4.392;2022-11-18T15:36:14;12.38;;;3.95;;
23517;SDS011;11935;50.878;4.392;2022-11-18T15:38:41;10.02;;;3.42;;
23517;SDS011;11935;50.878;4.392;2022-11-18T15:41:11;9.30;;;3.20;;
23517;SDS011;11935;50.878;4.392;2022-11-18T15:43:39;8.75;;;3.03;;
23517;SDS011;11935;50.878;4.392;2022-11-18T15:46:05;11.82;;;4.10;;
23517;SDS011;11935;50.878;4.392;2022-11-18T15:48:31;9.32;;;4.00;;
23517;SDS011;11935;50.878;4.392;2022-11-18T15:50:57;14.15;;;4.65;;
23517;SDS011;11935;50.878;4.392;2022-11-18T15:53:23;9.88;;;3.20;;
23517;SDS011;11935;50.878;4.392;2022-11-18T15:55:49;11.05;;;3.45;;
23517;SDS011;11935;50.878;4.392;2022-11-18T15:58:15;15.30;;;3.55;;
23517;SDS011;11935;50.878;4.392;2022-11-18T16:00:41;9.32;;;3.65;;
23517;SDS011;11935;50.878;4.392;2022-11-18T16:03:07;7.38;;;3.33;;
23517;SDS011;11935;50.878;4.392;2022-11-18T16:05:33;10.10;;;4.07;;
23517;SDS011;11935;50.878;4.392;2022-11-18T16:07:59;7.78;;;4.10;;
23517;SDS011;11935;50.878;4.392;2022-11-18T16:10:25;10.40;;;3.17;;
23517;SDS011;11935;50.878;4.392;2022-11-18T16:13:10;10.35;;;2.95;;
23517;SDS011;11935;50.878;4.392;2022-11-18T16:15:36;6.97;;;2.45;;
23517;SDS011;11935;50.878;4.392;2022-11-18T16:18:11;9.50;;;3.33;;
23517;SDS011;11935;50.878;4.392;2022-11-18T16:20:37;10.88;;;3.72;;
23517;SDS011;11935;50.878;4.392;2022-11-18T16:23:03;11.57;;;3.55;;
23517;SDS011;11935;50.878;4.392;2022-11-18T16:25:29;6.68;;;3.72;;
23517;SDS011;11935;50.878;4.392;2022-11-18T16:27:55;10.40;;;3.38;;
23517;SDS011;11935;50.878;4.392;2022-11-18T16:30:21;9.18;;;3.30;;
23517;SDS011;11935;50.878;4.392;2022-11-18T16:33:06;8.95;;;3.95;;
23517;SDS011;11935;50.878;4.392;2022-11-18T16:35:32;11.80;;;3.85;;
23517;SDS011;11935;50.878;4.392;2022-11-18T16:37:58;12.40;;;3.33;;
23517;SDS011;11935;50.878;4.392;2022-11-18T16:40:24;6.00;;;2.38;;
23517;SDS011;11935;50.878;4.392;2022-11-18T16:42:50;11.95;;;3.47;;
23517;SDS011;11935;50.878;4.392;2022-11-18T16:45:17;8.40;;;3.05;;
23517;SDS011;11935;50.878;4.392;2022-11-18T16:47:43;7.72;;;3.00;;
23517;SDS011;11935;50.878;4.392;2022-11-18T16:50:10;8.30;;;2.88;;
23517;SDS011;11935;50.878;4.392;2022-11-18T16:52:36;6.18;;;2.83;;
23517;SDS011;11935;50.878;4.392;2022-11-18T16:55:02;12.70;;;4.82;;
23517;SDS011;11935;50.878;4.392;2022-11-18T16:57:28;8.55;;;3.35;;
23517;SDS011;11935;50.878;4.392;2022-11-18T16:59:55;10.43;;;3.85;;
23517;SDS011;11935;50.878;4.392;2022-11-18T17:02:21;9.38;;;3.42;;
23517;SDS011;11935;50.878;4.392;2022-11-18T17:04:48;9.25;;;3.38;;
23517;SDS011;11935;50.878;4.392;2022-11-18T17:07:14;9.02;;;3.88;;
23517;SDS011;11935;50.878;4.392;2022-11-18T17:09:41;7.03;;;3.47;;
23517;SDS011;11935;50.878;4.392;2022-11-18T17:12:07;11.98;;;4.25;;
23517;SDS011;11935;50.878;4.392;2022-11-18T17:14:33;8.48;;;3.20;;
23517;SDS011;11935;50.878;4.392;2022-11-18T17:17:02;13.07;;;3.53;;
23517;SDS011;11935;50.878;4.392;2022-11-18T17:19:28;10.43;;;3.33;;
23517;SDS011;11935;50.878;4.392;2022-11-18T17:21:54;11.52;;;2.92;;
23517;SDS011;11935;50.878;4.392;2022-11-18T17:24:21;9.82;;;3.67;;
23517;SDS011;11935;50.878;4.392;2022-11-18T17:26:47;8.70;;;4.18;;
23517;SDS011;11935;50.878;4.392;2022-11-18T17:29:14;51.03;;;30.13;;
23517;SDS011;11935;50.878;4.392;2022-11-18T17:31:40;10.80;;;3.33;;
23517;SDS011;11935;50.878;4.392;2022-11-18T17:34:09;8.27;;;4.07;;
23517;SDS011;11935;50.878;4.392;2022-11-18T17:36:37;8.40;;;2.90;;
23517;SDS011;11935;50.878;4.392;2022-11-18T17:39:03;6.75;;;3.15;;
23517;SDS011;11935;50.878;4.392;2022-11-18T17:41:29;8.02;;;3.38;;
23517;SDS011;11935;50.878;4.392;2022-11-18T17:44:15;8.10;;;3.50;;
23517;SDS011;11935;50.878;4.392;2022-11-18T17:46:42;8.00;;;3.20;;
23517;SDS011;11935;50.878;4.392;2022-11-18T17:49:12;4.88;;;2.90;;
23517;SDS011;11935;50.878;4.392;2022-11-18T17:51:39;9.40;;;3.20;;
23517;SDS011;11935;50.878;4.392;2022-11-18T17:54:05;11.60;;;3.72;;
23517;SDS011;11935;50.878;4.392;2022-11-18T17:56:31;12.70;;;3.95;;
23517;SDS011;11935;50.878;4.392;2022-11-18T17:58:57;12.32;;;4.05;;
23517;SDS011;11935;50.878;4.392;2022-11-18T18:01:23;10.43;;;3.47;;
23517;SDS011;11935;50.878;4.392;2022-11-18T18:03:49;7.53;;;3.20;;
23517;SDS011;11935;50.878;4.392;2022-11-18T18:06:16;8.07;;;3.22;;
23517;SDS011;11935;50.878;4.392;2022-11-18T18:08:43;7.50;;;3.83;;
23517;SDS011;11935;50.878;4.392;2022-11-18T18:11:11;9.85;;;3.78;;
23517;SDS011;11935;50.878;4.392;2022-11-18T18:13:37;8.60;;;3.85;;
23517;SDS011;11935;50.878;4.392;2022-11-18T18:16:22;8.82;;;3.60;;
23517;SDS011;11935;50.878;4.392;2022-11-18T18:18:48;8.82;;;3.80;;
23517;SDS011;11935;50.878;4.392;2022-11-18T18:21:14;7.53;;;3.55;;
23517;SDS011;11935;50.878;4.392;2022-11-18T18:23:40;5.85;;;3.13;;
23517;SDS011;11935;50.878;4.392;2022-11-18T18:26:07;8.73;;;3.28;;
23517;SDS011;11935;50.878;4.392;2022-11-18T18:28:34;8.05;;;3.55;;
23517;SDS011;11935;50.878;4.392;2022-11-18T18:31:00;8.65;;;3.55;;
23517;SDS011;11935;50.878;4.392;2022-11-18T18:33:27;8.90;;;3.78;;
23517;SDS011;11935;50.878;4.392;2022-11-18T18:35:57;8.68;;;3.63;;
23517;SDS011;11935;50.878;4.392;2022-11-18T18:38:23;11.30;;;4.15;;
23517;SDS011;11935;50.878;4.392;2022-11-18T18:40:49;11.93;;;4.55;;
23517;SDS011;11935;50.878;4.392;2022-11-18T18:43:16;9.02;;;4.22;;
23517;SDS011;11935;50.878;4.392;2022-11-18T18:45:42;11.82;;;4.60;;
23517;SDS011;11935;50.878;4.392;2022-11-18T18:48:27;8.15;;;3.75;;
23517;SDS011;11935;50.878;4.392;2022-11-18T18:50:53;9.13;;;4.60;;
23517;SDS011;11935;50.878;4.392;2022-11-18T18:53:19;8.30;;;4.57;;
23517;SDS011;11935;50.878;4.392;2022-11-18T18:55:45;13.48;;;5.32;;
23517;SDS011;11935;50.878;4.392;2022-11-18T18:58:11;11.02;;;6.10;;
23517;SDS011;11935;50.878;4.392;2022-11-18T19:00:37;10.20;;;5.30;;
23517;SDS011;11935;50.878;4.392;2022-11-18T19:03:03;9.10;;;5.18;;
23517;SDS011;11935;50.878;4.392;2022-11-18T19:05:32;9.70;;;5.03;;
23517;SDS011;11935;50.878;4.392;2022-11-18T19:07:58;9.18;;;5.43;;
23517;SDS011;11935;50.878;4.392;2022-11-18T19:10:24;9.68;;;5.00;;
23517;SDS011;11935;50.878;4.392;2022-11-18T19:12:50;10.73;;;6.43;;
23517;SDS011;11935;50.878;4.392;2022-11-18T19:15:17;8.90;;;5.90;;
23517;SDS011;11935;50.878;4.392;2022-11-18T19:17:44;10.45;;;5.70;;
23517;SDS011;11935;50.878;4.392;2022-11-18T19:20:11;14.50;;;6.35;;
23517;SDS011;11935;50.878;4.392;2022-11-18T19:23:00;13.65;;;6.72;;
23517;SDS011;11935;50.878;4.392;2022-11-18T19:25:27;14.13;;;6.75;;
23517;SDS011;11935;50.878;4.392;2022-11-18T19:27:54;9.55;;;6.90;;
23517;SDS011;11935;50.878;4.392;2022-11-18T19:30:20;10.93;;;6.55;;
23517;SDS011;11935;50.878;4.392;2022-11-18T19:32:46;13.07;;;6.30;;
23517;SDS011;11935;50.878;4.392;2022-11-18T19:35:12;12.00;;;6.13;;
23517;SDS011;11935;50.878;4.392;2022-11-18T19:37:38;9.82;;;6.60;;
23517;SDS011;11935;50.878;4.392;2022-11-18T19:40:05;15.10;;;6.00;;
23517;SDS011;11935;50.878;4.392;2022-11-18T19:42:32;12.95;;;6.07;;
23517;SDS011;11935;50.878;4.392;2022-11-18T19:45:05;9.85;;;5.60;;
23517;SDS011;11935;50.878;4.392;2022-11-18T19:47:31;12.25;;;6.22;;
23517;SDS011;11935;50.878;4.392;2022-11-18T19:49:58;7.95;;;5.95;;
23517;SDS011;11935;50.878;4.392;2022-11-18T19:52:24;9.27;;;6.45;;
23517;SDS011;11935;50.878;4.392;2022-11-18T19:54:50;10.45;;;5.88;;
23517;SDS011;11935;50.878;4.392;2022-11-18T19:57:16;11.98;;;6.70;;
23517;SDS011;11935;50.878;4.392;2022-11-18T19:59:42;12.38;;;7.32;;
23517;SDS011;11935;50.878;4.392;2022-11-18T20:02:09;14.15;;;6.28;;
23517;SDS011;11935;50.878;4.392;2022-11-18T20:04:35;12.68;;;6.47;;
23517;SDS011;11935;50.878;4.392;2022-11-18T20:07:01;11.40;;;6.97;;
23517;SDS011;11935;50.878;4.392;2022-11-18T20:09:27;12.90;;;7.07;;
23517;SDS011;11935;50.878;4.392;2022-11-18T20:11:53;14.73;;;6.97;;
23517;SDS011;11935;50.878;4.392;2022-11-18T20:14:19;15.60;;;6.38;;
23517;SDS011;11935;50.878;4.392;2022-11-18T20:16:45;15.07;;;6.95;;
23517;SDS011;11935;50.878;4.392;2022-11-18T20:19:11;20.65;;;7.50;;
23517;SDS011;11935;50.878;4.392;2022-11-18T20:21:38;12.35;;;7.53;;
23517;SDS011;11935;50.878;4.392;2022-11-18T20:24:04;16.38;;;7.07;;
23517;SDS011;11935;50.878;4.392;2022-11-18T20:26:35;16.23;;;7.97;;
23517;SDS011;11935;50.878;4.392;2022-11-18T20:29:01;11.20;;;7.03;;
23517;SDS011;11935;50.878;4.392;2022-11-18T20:31:27;13.90;;;8.63;;
23517;SDS011;11935;50.878;4.392;2022-11-18T20:33:54;14.68;;;8.00;;
23517;SDS011;11935;50.878;4.392;2022-11-18T20:36:24;14.02;;;8.02;;
23517;SDS011;11935;50.878;4.392;2022-11-18T20:38:55;13.98;;;8.48;;
23517;SDS011;11935;50.878;4.392;2022-11-18T20:41:21;16.25;;;8.02;;
23517;SDS011;11935;50.878;4.392;2022-11-18T20:43:47;17.63;;;9.10;;
23517;SDS011;11935;50.878;4.392;2022-11-18T20:46:14;19.63;;;9.45;;
23517;SDS011;11935;50.878;4.392;2022-11-18T20:48:40;16.58;;;9.75;;
23517;SDS011;11935;50.878;4.392;2022-11-18T20:53:33;14.50;;;9.75;;
23517;SDS011;11935;50.878;4.392;2022-11-18T20:56:03;12.77;;;9.05;;
23517;SDS011;11935;50.878;4.392;2022-11-18T20:58:29;19.05;;;9.20;;
23517;SDS011;11935;50.878;4.392;2022-11-18T21:00:55;19.45;;;9.60;;
23517;SDS011;11935;50.878;4.392;2022-11-18T21:03:22;19.58;;;9.30;;
23517;SDS011;11935;50.878;4.392;2022-11-18T21:05:48;16.48;;;9.40;;
23517;SDS011;11935;50.878;4.392;2022-11-18T21:08:14;21.80;;;9.93;;
23517;SDS011;11935;50.878;4.392;2022-11-18T21:10:40;13.77;;;9.07;;
23517;SDS011;11935;50.878;4.392;2022-11-18T21:13:06;14.73;;;8.55;;
23517;SDS011;11935;50.878;4.392;2022-11-18T21:15:51;17.77;;;10.40;;
23517;SDS011;11935;50.878;4.392;2022-11-18T21:18:17;15.52;;;9.23;;
23517;SDS011;11935;50.878;4.392;2022-11-18T21:20:43;17.27;;;9.85;;
23517;SDS011;11935;50.878;4.392;2022-11-18T21:23:27;14.57;;;9.25;;
23517;SDS011;11935;50.878;4.392;2022-11-18T21:25:53;16.88;;;9.93;;
23517;SDS011;11935;50.878;4.392;2022-11-18T21:28:20;17.33;;;10.05;;
23517;SDS011;11935;50.878;4.392;2022-11-18T21:30:46;21.05;;;10.40;;
23517;SDS011;11935;50.878;4.392;2022-11-18T21:33:12;19.50;;;10.10;;
23517;SDS011;11935;50.878;4.392;2022-11-18T21:35:38;19.63;;;10.70;;
23517;SDS011;11935;50.878;4.392;2022-11-18T21:38:04;17.23;;;10.80;;
23517;SDS011;11935;50.878;4.392;2022-11-18T21:40:30;14.02;;;10.05;;
23517;SDS011;11935;50.878;4.392;2022-11-18T21:42:56;16.58;;;11.02;;
23517;SDS011;11935;50.878;4.392;2022-11-18T21:45:22;17.20;;;11.23;;
23517;SDS011;11935;50.878;4.392;2022-11-18T21:47:48;18.70;;;10.70;;
23517;SDS011;11935;50.878;4.392;2022-11-18T21:50:14;18.23;;;10.80;;
23517;SDS011;11935;50.878;4.392;2022-11-18T21:52:40;20.42;;;11.82;;
23517;SDS011;11935;50.878;4.392;2022-11-18T21:55:06;18.13;;;11.98;;
23517;SDS011;11935;50.878;4.392;2022-11-18T21:57:32;18.15;;;11.15;;
23517;SDS011;11935;50.878;4.392;2022-11-18T21:59:58;17.58;;;11.60;;
23517;SDS011;11935;50.878;4.392;2022-11-18T22:02:24;19.65;;;12.25;;
23517;SDS011;11935;50.878;4.392;2022-11-18T22:04:51;20.27;;;12.43;;
23517;SDS011;11935;50.878;4.392;2022-11-18T22:07:17;17.17;;;11.40;;
23517;SDS011;11935;50.878;4.392;2022-11-18T22:09:44;24.33;;;13.52;;
23517;SDS011;11935;50.878;4.392;2022-11-18T22:12:10;18.08;;;12.70;;
23517;SDS011;11935;50.878;4.392;2022-11-18T22:14:36;21.17;;;13.32;;
23517;SDS011;11935;50.878;4.392;2022-11-18T22:17:02;22.35;;;13.65;;
23517;SDS011;11935;50.878;4.392;2022-11-18T22:19:28;22.83;;;12.93;;
23517;SDS011;11935;50.878;4.392;2022-11-18T22:21:55;19.67;;;11.82;;
23517;SDS011;11935;50.878;4.392;2022-11-18T22:24:21;23.17;;;13.32;;
23517;SDS011;11935;50.878;4.392;2022-11-18T22:26:47;16.80;;;11.63;;
23517;SDS011;11935;50.878;4.392;2022-11-18T22:29:16;22.20;;;12.27;;
23517;SDS011;11935;50.878;4.392;2022-11-18T22:31:42;21.30;;;13.63;;
23517;SDS011;11935;50.878;4.392;2022-11-18T22:34:08;16.23;;;12.35;;
23517;SDS011;11935;50.878;4.392;2022-11-18T22:36:35;18.75;;;12.93;;
23517;SDS011;11935;50.878;4.392;2022-11-18T22:39:01;23.52;;;13.35;;
23517;SDS011;11935;50.878;4.392;2022-11-18T22:41:27;21.65;;;13.02;;
23517;SDS011;11935;50.878;4.392;2022-11-18T22:44:13;22.58;;;14.77;;
23517;SDS011;11935;50.878;4.392;2022-11-18T22:46:41;22.43;;;13.97;;
23517;SDS011;11935;50.878;4.392;2022-11-18T22:49:07;19.58;;;13.23;;
23517;SDS011;11935;50.878;4.392;2022-11-18T22:51:36;19.73;;;13.35;;
23517;SDS011;11935;50.878;4.392;2022-11-18T22:54:03;20.95;;;14.35;;
23517;SDS011;11935;50.878;4.392;2022-11-18T22:56:29;20.35;;;12.30;;
23517;SDS011;11935;50.878;4.392;2022-11-18T22:58:55;22.95;;;13.55;;
23517;SDS011;11935;50.878;4.392;2022-11-18T23:01:22;24.35;;;14.05;;
23517;SDS011;11935;50.878;4.392;2022-11-18T23:03:51;19.42;;;13.82;;
23517;SDS011;11935;50.878;4.392;2022-11-18T23:06:17;20.98;;;13.20;;
23517;SDS011;11935;50.878;4.392;2022-11-18T23:08:43;23.02;;;13.73;;
23517;SDS011;11935;50.878;4.392;2022-11-18T23:11:14;27.73;;;14.32;;
23517;SDS011;11935;50.878;4.392;2022-11-18T23:14:00;28.67;;;15.68;;
23517;SDS011;11935;50.878;4.392;2022-11-18T23:16:34;22.10;;;13.82;;
23517;SDS011;11935;50.878;4.392;2022-11-18T23:19:01;18.35;;;13.85;;
23517;SDS011;11935;50.878;4.392;2022-11-18T23:21:27;21.00;;;13.73;;
23517;SDS011;11935;50.878;4.392;2022-11-18T23:23:53;24.83;;;15.98;;
23517;SDS011;11935;50.878;4.392;2022-11-18T23:26:20;24.33;;;15.60;;
23517;SDS011;11935;50.878;4.392;2022-11-18T23:28:46;23.55;;;16.95;;
23517;SDS011;11935;50.878;4.392;2022-11-18T23:31:13;21.50;;;15.60;;
23517;SDS011;11935;50.878;4.392;2022-11-18T23:33:40;29.23;;;17.13;;
23517;SDS011;11935;50.878;4.392;2022-11-18T23:36:07;26.85;;;16.33;;
23517;SDS011;11935;50.878;4.392;2022-11-18T23:38:34;28.70;;;15.38;;
23517;SDS011;11935;50.878;4.392;2022-11-18T23:41:04;24.15;;;15.05;;
23517;SDS011;11935;50.878;4.392;2022-11-18T23:43:31;23.63;;;15.90;;
23517;SDS011;11935;50.878;4.392;2022-11-18T23:45:57;23.83;;;15.35;;
23517;SDS011;11935;50.878;4.392;2022-11-18T23:48:24;33.03;;;18.10;;
23517;SDS011;11935;50.878;4.392;2022-11-18T23:53:20;25.23;;;16.50;;
23517;SDS011;11935;50.878;4.392;2022-11-18T23:55:46;26.98;;;15.52;;
23517;SDS011;11935;50.878;4.392;2022-11-18T23:58:12;92.20;;;59.38;;
